Alfredo Chaves, Brazil
Current Conditions -  °F | °C
As of 6:00 AM on Friday 24 Oct 2014 (Local Time) from SBVT Reporting Station
Clear Clear  
Wind Chill: 66°   Ceiling: Unl
Heat Index: 66°   Visibility: 6mi
Dew Point: 63°   Wind: 2mph
Humidity: 88%   Direction: 310°NW
Pressure: 30.03"   Gusts: NA
Location:  20.64°S, 40.75°W
Report Text: SBVT 240800Z 31002KT CAVOK 19/17 Q1017
Loading
Personal Weather Stations






























Interactive Weather Map
Tropical Storm Tracking
New forecast layout! Learn more

10-Day Weather Forecast

Advertisements
Track Severe Weather on mobile